Time;durP1;ratioP1;P1;durP2;ratioP2;P2;SDS_P1;SDS_P2;PMS_P1;PMS_P2;Temp;Humidity;BMP_temperature;BMP_pressure;BME280_temperature;BME280_humidity;BME280_pressure;Samples;Min_cycle;Max_cycle;Signal;HPM_P1;HPM_P2
2022/05/20 00:00:54;;;;;;;3.28;2.60;;;;;;;;;;7380635;19;20693;-81
2022/05/20 00:03:20;;;;;;;3.58;3.22;;;;;;;;;;7402225;19;20121;-82
2022/05/20 00:05:47;;;;;;;3.55;3.15;;;;;;;;;;7426374;19;20147;-83
2022/05/20 00:08:13;;;;;;;4.78;3.33;;;;;;;;;;7426173;19;20128;-81
2022/05/20 00:10:39;;;;;;;6.00;2.97;;;;;;;;;;7418048;19;20160;-82
2022/05/20 00:13:06;;;;;;;4.68;3.08;;;;;;;;;;7379807;19;20125;-79
2022/05/20 00:15:32;;;;;;;3.83;3.20;;;;;;;;;;7357719;19;20200;-79
2022/05/20 00:17:58;;;;;;;4.93;3.67;;;;;;;;;;7367738;19;20140;-79
2022/05/20 00:20:26;;;;;;;5.20;3.80;;;;;;;;;;7375650;19;20162;-82
2022/05/20 00:22:52;;;;;;;3.20;2.88;;;;;;;;;;7358124;19;20133;-79
2022/05/20 00:28:04;;;;;;;3.63;3.05;;;;;;;;;;7387970;19;20128;-78
2022/05/20 00:30:30;;;;;;;4.60;3.35;;;;;;;;;;7378293;19;20470;-79
2022/05/20 00:32:56;;;;;;;3.33;2.80;;;;;;;;;;7385254;19;20140;-78
2022/05/20 00:35:23;;;;;;;3.47;2.70;;;;;;;;;;7388990;19;20168;-78
2022/05/20 00:37:49;;;;;;;5.47;3.45;;;;;;;;;;7382368;19;20201;-79
2022/05/20 00:40:18;;;;;;;3.30;3.00;;;;;;;;;;7383628;19;20676;-79
2022/05/20 00:42:44;;;;;;;3.15;2.85;;;;;;;;;;7377910;19;20919;-78
2022/05/20 00:45:10;;;;;;;2.97;2.65;;;;;;;;;;7374359;19;20169;-78
2022/05/20 00:47:37;;;;;;;3.38;2.95;;;;;;;;;;7374678;19;20144;-79
2022/05/20 00:50:05;;;;;;;5.07;2.78;;;;;;;;;;7380783;19;20575;-79
2022/05/20 00:52:33;;;;;;;3.42;2.90;;;;;;;;;;7373848;19;20125;-79
2022/05/20 00:55:00;;;;;;;3.35;2.97;;;;;;;;;;7368499;19;20160;-78
2022/05/20 00:57:32;;;;;;;3.13;2.72;;;;;;;;;;7381504;19;20148;-78
2022/05/20 01:00:02;;;;;;;2.92;2.50;;;;;;;;;;7375934;19;20162;-79
2022/05/20 01:02:28;;;;;;;5.25;2.90;;;;;;;;;;7375380;19;20152;-78
2022/05/20 01:04:56;;;;;;;4.43;2.90;;;;;;;;;;7372942;19;20157;-79
2022/05/20 01:07:22;;;;;;;4.32;2.90;;;;;;;;;;7381545;19;20133;-78
2022/05/20 01:09:48;;;;;;;3.30;3.00;;;;;;;;;;7365465;19;20145;-78
2022/05/20 01:12:14;;;;;;;4.80;3.10;;;;;;;;;;7371296;19;20125;-79
2022/05/20 01:14:40;;;;;;;4.53;3.33;;;;;;;;;;7376705;19;20171;-78
2022/05/20 01:17:07;;;;;;;3.17;2.70;;;;;;;;;;7379615;19;20125;-78
2022/05/20 01:19:33;;;;;;;3.30;3.00;;;;;;;;;;7379781;19;20121;-81
2022/05/20 01:21:59;;;;;;;4.45;2.90;;;;;;;;;;7375521;19;20159;-79
2022/05/20 01:24:26;;;;;;;3.03;2.70;;;;;;;;;;7372710;19;20157;-78
2022/05/20 01:26:52;;;;;;;3.15;2.83;;;;;;;;;;7373929;19;20157;-78
2022/05/20 01:29:19;;;;;;;4.10;3.17;;;;;;;;;;7379960;19;20609;-78
2022/05/20 01:31:44;;;;;;;3.53;3.15;;;;;;;;;;7382202;19;20467;-78
2022/05/20 01:34:10;;;;;;;4.35;3.28;;;;;;;;;;7380101;19;20136;-79
2022/05/20 01:36:36;;;;;;;4.82;2.50;;;;;;;;;;7375831;19;20173;-79
2022/05/20 01:39:03;;;;;;;3.10;2.80;;;;;;;;;;7380813;19;23451;-79
2022/05/20 01:41:39;;;;;;;4.47;2.90;;;;;;;;;;7367763;19;20128;-79
2022/05/20 01:44:08;;;;;;;4.85;3.20;;;;;;;;;;7378411;19;20481;-79
2022/05/20 01:46:34;;;;;;;3.47;2.88;;;;;;;;;;7377836;19;20172;-79
2022/05/20 01:49:09;;;;;;;3.80;2.72;;;;;;;;;;7374263;19;20159;-79
2022/05/20 01:51:47;;;;;;;3.33;3.03;;;;;;;;;;7381672;19;20140;-78
2022/05/20 01:54:15;;;;;;;4.03;2.75;;;;;;;;;;7386795;19;20140;-79
2022/05/20 01:56:49;;;;;;;3.50;2.75;;;;;;;;;;7373339;19;21399;-79
2022/05/20 01:59:21;;;;;;;4.20;3.05;;;;;;;;;;7376408;19;20147;-79
2022/05/20 02:01:54;;;;;;;4.70;2.85;;;;;;;;;;7374491;19;20141;-80
2022/05/20 02:04:22;;;;;;;4.55;2.80;;;;;;;;;;7370077;19;20537;-78
2022/05/20 02:06:52;;;;;;;4.63;3.10;;;;;;;;;;7377449;19;20185;-79
2022/05/20 02:09:21;;;;;;;4.10;2.70;;;;;;;;;;7375989;19;20141;-80
2022/05/20 02:11:48;;;;;;;3.35;2.60;;;;;;;;;;7377949;19;20137;-79
2022/05/20 02:14:20;;;;;;;3.05;2.78;;;;;;;;;;7372826;19;20144;-79
2022/05/20 02:17:10;;;;;;;3.53;2.80;;;;;;;;;;7372219;19;20152;-78
2022/05/20 02:19:41;;;;;;;4.10;2.83;;;;;;;;;;7371880;19;20496;-78
2022/05/20 02:22:10;;;;;;;3.15;2.53;;;;;;;;;;7372797;19;20152;-79
2022/05/20 02:24:39;;;;;;;3.60;3.00;;;;;;;;;;7375041;19;20140;-79
2022/05/20 02:27:06;;;;;;;5.30;2.85;;;;;;;;;;7379193;19;20136;-79
2022/05/20 02:29:59;;;;;;;5.35;2.50;;;;;;;;;;7373263;19;20148;-79
2022/05/20 02:32:30;;;;;;;3.08;2.78;;;;;;;;;;7379551;19;20165;-79
2022/05/20 02:34:56;;;;;;;3.45;2.50;;;;;;;;;;7380780;19;20220;-79
2022/05/20 02:37:24;;;;;;;3.90;2.75;;;;;;;;;;7374563;19;20150;-80
2022/05/20 02:39:50;;;;;;;3.72;2.80;;;;;;;;;;7383173;19;20129;-81
2022/05/20 02:42:16;;;;;;;3.55;2.50;;;;;;;;;;7375613;19;20156;-82
2022/05/20 02:44:42;;;;;;;3.00;2.70;;;;;;;;;;7380801;19;20249;-81
2022/05/20 02:47:08;;;;;;;4.95;2.55;;;;;;;;;;7376830;19;20172;-79
2022/05/20 02:49:35;;;;;;;4.22;3.00;;;;;;;;;;7376785;19;20503;-80
2022/05/20 02:52:01;;;;;;;5.78;2.50;;;;;;;;;;7380462;19;20176;-79
2022/05/20 02:54:27;;;;;;;3.65;3.13;;;;;;;;;;7385688;19;20149;-79
2022/05/20 02:56:53;;;;;;;2.80;2.60;;;;;;;;;;7381297;19;20449;-79
2022/05/20 03:04:49;;;;;;;4.97;2.58;;;;;;;;;;7373919;19;20173;-79
2022/05/20 03:07:15;;;;;;;3.23;2.70;;;;;;;;;;7374406;19;20132;-82
2022/05/20 03:09:41;;;;;;;3.97;2.83;;;;;;;;;;7383177;19;20216;-80
2022/05/20 03:12:07;;;;;;;3.58;3.10;;;;;;;;;;7371090;19;20121;-81
2022/05/20 03:14:33;;;;;;;3.60;3.30;;;;;;;;;;7386643;19;20133;-80
2022/05/20 03:16:59;;;;;;;4.13;2.78;;;;;;;;;;7371782;19;20835;-79
2022/05/20 03:19:30;;;;;;;4.18;3.10;;;;;;;;;;7384472;19;20224;-78
2022/05/20 03:22:00;;;;;;;3.10;2.80;;;;;;;;;;7379286;19;20606;-78
2022/05/20 03:24:26;;;;;;;4.43;2.97;;;;;;;;;;7380232;19;20117;-79
2022/05/20 03:26:53;;;;;;;3.03;2.72;;;;;;;;;;7377525;19;20133;-79
2022/05/20 03:29:19;;;;;;;3.00;2.80;;;;;;;;;;7385731;19;20140;-78
2022/05/20 03:31:45;;;;;;;3.27;2.97;;;;;;;;;;7378304;19;20587;-78
2022/05/20 03:34:11;;;;;;;2.77;2.57;;;;;;;;;;7373498;19;20163;-79
2022/05/20 03:36:39;;;;;;;3.90;3.30;;;;;;;;;;7375690;19;20157;-78
2022/05/20 03:39:05;;;;;;;4.27;3.37;;;;;;;;;;7378587;19;20630;-79
2022/05/20 03:41:31;;;;;;;3.50;3.20;;;;;;;;;;7373702;19;20160;-79
2022/05/20 03:43:57;;;;;;;3.80;3.50;;;;;;;;;;7378431;19;20156;-79
2022/05/20 03:46:23;;;;;;;3.20;2.90;;;;;;;;;;7381940;19;20153;-79
2022/05/20 03:48:49;;;;;;;6.17;3.27;;;;;;;;;;7385771;19;20154;-80
2022/05/20 03:51:15;;;;;;;3.70;3.30;;;;;;;;;;7387754;19;20541;-80
2022/05/20 03:53:42;;;;;;;3.53;3.00;;;;;;;;;;7387191;19;20176;-80
2022/05/20 03:56:08;;;;;;;3.33;2.90;;;;;;;;;;7379009;19;20167;-81
2022/05/20 03:58:34;;;;;;;3.67;3.37;;;;;;;;;;7392320;19;20140;-80
2022/05/20 04:03:46;;;;;;;4.03;2.93;;;;;;;;;;7384962;19;20140;-79
2022/05/20 04:06:12;;;;;;;4.97;3.10;;;;;;;;;;7380163;19;20153;-84
2022/05/20 04:08:39;;;;;;;8.33;3.10;;;;;;;;;;7382917;19;20647;-81
2022/05/20 04:11:11;;;;;;;4.47;3.10;;;;;;;;;;7388489;19;20149;-82
2022/05/20 04:13:40;;;;;;;3.47;3.17;;;;;;;;;;7388121;19;20532;-79
2022/05/20 04:16:07;;;;;;;3.33;3.00;;;;;;;;;;7385552;19;20180;-81
2022/05/20 04:18:33;;;;;;;4.20;2.80;;;;;;;;;;7385696;19;20133;-82
2022/05/20 04:20:59;;;;;;;3.40;2.93;;;;;;;;;;7384347;19;20198;-80
2022/05/20 04:23:25;;;;;;;3.40;3.10;;;;;;;;;;7388096;19;20155;-79
2022/05/20 04:25:51;;;;;;;3.38;3.08;;;;;;;;;;7382912;19;20723;-79
2022/05/20 04:28:17;;;;;;;4.50;3.00;;;;;;;;;;7387909;19;20120;-79
2022/05/20 04:30:43;;;;;;;4.30;3.28;;;;;;;;;;7386653;19;20160;-79
2022/05/20 04:33:10;;;;;;;3.30;3.00;;;;;;;;;;7388836;19;20132;-79
2022/05/20 04:35:36;;;;;;;2.95;2.75;;;;;;;;;;7380632;19;20153;-80
2022/05/20 04:38:02;;;;;;;5.93;3.33;;;;;;;;;;7377792;19;20136;-80
2022/05/20 04:40:28;;;;;;;3.78;3.20;;;;;;;;;;7385594;19;20176;-80
2022/05/20 04:48:32;;;;;;;3.43;3.00;;;;;;;;;;7378297;19;20196;-82
2022/05/20 04:50:58;;;;;;;3.77;3.00;;;;;;;;;;7377117;19;20129;-79
2022/05/20 04:56:09;;;;;;;3.67;3.03;;;;;;;;;;7383327;19;20512;-80
2022/05/20 04:58:35;;;;;;;3.33;2.72;;;;;;;;;;7381820;19;20120;-80
2022/05/20 05:01:01;;;;;;;3.75;2.70;;;;;;;;;;7375483;19;20156;-79
2022/05/20 05:03:27;;;;;;;3.35;2.72;;;;;;;;;;7379283;19;20136;-79
2022/05/20 05:05:53;;;;;;;3.13;2.63;;;;;;;;;;7373091;19;20201;-79
2022/05/20 05:08:19;;;;;;;4.00;2.92;;;;;;;;;;7369904;19;20624;-80
2022/05/20 05:10:45;;;;;;;4.03;2.83;;;;;;;;;;7380459;19;20152;-78
2022/05/20 05:13:13;;;;;;;3.60;3.22;;;;;;;;;;7377771;19;20144;-81
2022/05/20 05:15:41;;;;;;;4.78;3.13;;;;;;;;;;7376635;19;20176;-79
2022/05/20 05:18:14;;;;;;;3.67;3.00;;;;;;;;;;7387043;19;20146;-79
2022/05/20 05:20:50;;;;;;;3.65;2.78;;;;;;;;;;7378314;19;20165;-77
2022/05/20 05:23:17;;;;;;;4.50;2.88;;;;;;;;;;7375247;19;20125;-79
2022/05/20 05:25:43;;;;;;;3.13;2.80;;;;;;;;;;7376484;19;20597;-78
2022/05/20 05:28:10;;;;;;;4.13;3.00;;;;;;;;;;7364291;19;20592;-79
2022/05/20 05:30:36;;;;;;;4.30;2.90;;;;;;;;;;7374994;19;20184;-79
2022/05/20 05:33:02;;;;;;;2.80;2.50;;;;;;;;;;7362417;19;20116;-82
2022/05/20 05:35:30;;;;;;;4.18;2.70;;;;;;;;;;7361815;19;20157;-79
2022/05/20 05:37:56;;;;;;;3.30;2.90;;;;;;;;;;7365300;19;20156;-81
2022/05/20 05:40:23;;;;;;;3.20;2.90;;;;;;;;;;7372792;19;20137;-80
2022/05/20 05:42:50;;;;;;;3.83;3.00;;;;;;;;;;7366983;19;20629;-81
2022/05/20 05:45:18;;;;;;;3.42;3.13;;;;;;;;;;7370814;19;20161;-78
2022/05/20 05:47:46;;;;;;;5.13;2.70;;;;;;;;;;7370530;19;20149;-78
2022/05/20 05:50:12;;;;;;;3.30;3.00;;;;;;;;;;7375084;19;20550;-79
2022/05/20 05:52:38;;;;;;;3.88;2.92;;;;;;;;;;7369325;19;20152;-79
2022/05/20 05:55:04;;;;;;;3.45;2.80;;;;;;;;;;7366352;19;20207;-81
2022/05/20 05:57:30;;;;;;;4.95;3.17;;;;;;;;;;7390234;19;20129;-79
2022/05/20 05:59:56;;;;;;;7.32;3.85;;;;;;;;;;7423786;19;20129;-78
2022/05/20 06:02:22;;;;;;;9.20;3.88;;;;;;;;;;7418781;19;20164;-79
2022/05/20 06:04:51;;;;;;;7.63;3.92;;;;;;;;;;7415582;19;20168;-79
2022/05/20 06:07:17;;;;;;;6.13;3.53;;;;;;;;;;7402965;19;20141;-76
2022/05/20 06:09:43;;;;;;;8.60;3.90;;;;;;;;;;7386424;19;20156;-76
2022/05/20 06:12:10;;;;;;;6.55;4.13;;;;;;;;;;7382704;19;20188;-77
2022/05/20 06:14:36;;;;;;;9.57;4.05;;;;;;;;;;7379595;19;20164;-77
2022/05/20 06:19:30;;;;;;;6.70;4.18;;;;;;;;;;7387571;19;20159;-79
2022/05/20 06:21:56;;;;;;;6.85;4.38;;;;;;;;;;7385966;19;20133;-78
2022/05/20 06:24:22;;;;;;;5.93;4.55;;;;;;;;;;7395898;19;20136;-78
2022/05/20 06:26:48;;;;;;;8.52;4.60;;;;;;;;;;7391090;19;20192;-78
2022/05/20 06:29:15;;;;;;;6.45;4.43;;;;;;;;;;7396534;19;20133;-78
2022/05/20 06:31:42;;;;;;;6.75;4.13;;;;;;;;;;7390591;19;20196;-79
2022/05/20 06:34:08;;;;;;;9.65;4.70;;;;;;;;;;7379984;19;20137;-81
2022/05/20 06:42:03;;;;;;;6.47;3.90;;;;;;;;;;7382442;19;20150;-78
2022/05/20 06:44:30;;;;;;;6.15;4.20;;;;;;;;;;7372548;19;20129;-79
2022/05/20 06:46:56;;;;;;;5.38;4.10;;;;;;;;;;7378934;19;20225;-78
2022/05/20 06:49:23;;;;;;;8.82;4.35;;;;;;;;;;7368294;19;20152;-78
2022/05/20 06:51:50;;;;;;;6.88;4.00;;;;;;;;;;7374512;19;20623;-78
2022/05/20 06:54:17;;;;;;;7.78;4.43;;;;;;;;;;7384477;19;20629;-78
2022/05/20 06:56:44;;;;;;;6.82;4.05;;;;;;;;;;7384246;19;20215;-78
2022/05/20 06:59:11;;;;;;;9.25;4.50;;;;;;;;;;7384680;19;20142;-78
2022/05/20 07:01:37;;;;;;;11.07;5.10;;;;;;;;;;7388121;19;20148;-78
2022/05/20 07:04:04;;;;;;;7.40;4.43;;;;;;;;;;7385808;19;20117;-78
2022/05/20 07:06:32;;;;;;;8.05;4.80;;;;;;;;;;7386896;19;20174;-78
2022/05/20 07:08:58;;;;;;;3.80;3.42;;;;;;;;;;7389204;19;20156;-78
2022/05/20 07:11:25;;;;;;;5.32;3.50;;;;;;;;;;7387871;19;20129;-78
2022/05/20 07:13:54;;;;;;;6.07;3.65;;;;;;;;;;7388574;19;20630;-78
2022/05/20 07:16:20;;;;;;;6.85;3.28;;;;;;;;;;7386226;19;20145;-78
2022/05/20 07:18:46;;;;;;;5.20;3.00;;;;;;;;;;7390560;19;20140;-78
2022/05/20 07:21:12;;;;;;;4.82;3.10;;;;;;;;;;7386360;19;20117;-78
2022/05/20 07:23:38;;;;;;;3.30;2.95;;;;;;;;;;7386924;19;20143;-78
2022/05/20 07:26:05;;;;;;;7.57;3.13;;;;;;;;;;7382518;19;20657;-78
2022/05/20 07:28:32;;;;;;;4.60;3.05;;;;;;;;;;7385390;19;20148;-77
2022/05/20 07:30:58;;;;;;;7.07;3.67;;;;;;;;;;7391079;19;20128;-78
2022/05/20 07:33:24;;;;;;;4.80;3.53;;;;;;;;;;7385408;19;20469;-78
2022/05/20 07:35:50;;;;;;;4.78;3.22;;;;;;;;;;7386278;19;20853;-78
2022/05/20 07:38:17;;;;;;;10.00;4.07;;;;;;;;;;7388695;19;20121;-78
2022/05/20 07:40:43;;;;;;;4.13;3.10;;;;;;;;;;7384846;19;20137;-79
2022/05/20 07:43:09;;;;;;;8.02;3.30;;;;;;;;;;7386734;19;20145;-75
2022/05/20 07:45:35;;;;;;;6.45;3.35;;;;;;;;;;7383230;19;20152;-78
2022/05/20 07:48:01;;;;;;;6.47;2.85;;;;;;;;;;7389571;19;20134;-76
2022/05/20 07:50:27;;;;;;;5.15;3.45;;;;;;;;;;7385961;19;20156;-76
2022/05/20 07:55:41;;;;;;;3.83;3.15;;;;;;;;;;7379742;19;20172;-75
2022/05/20 07:58:08;;;;;;;6.32;3.53;;;;;;;;;;7377174;19;20133;-76
2022/05/20 08:00:34;;;;;;;5.35;3.33;;;;;;;;;;7375707;19;20140;-75
2022/05/20 08:03:01;;;;;;;5.65;3.55;;;;;;;;;;7377806;19;20137;-75
2022/05/20 08:05:28;;;;;;;5.82;3.50;;;;;;;;;;7367540;19;20594;-76
2022/05/20 08:07:56;;;;;;;5.18;3.35;;;;;;;;;;7373241;19;20658;-77
2022/05/20 08:10:22;;;;;;;3.65;3.30;;;;;;;;;;7374512;19;20136;-77
2022/05/20 08:12:49;;;;;;;7.53;3.90;;;;;;;;;;7373379;19;20148;-76
2022/05/20 08:15:15;;;;;;;5.75;3.78;;;;;;;;;;7371273;19;20594;-76
2022/05/20 08:17:43;;;;;;;6.53;4.40;;;;;;;;;;7368172;19;20157;-77
2022/05/20 08:20:11;;;;;;;5.85;3.80;;;;;;;;;;7363164;19;20152;-77
2022/05/20 08:22:37;;;;;;;4.60;3.47;;;;;;;;;;7374315;19;20148;-77
2022/05/20 08:25:04;;;;;;;6.60;3.60;;;;;;;;;;7367635;19;20733;-77
2022/05/20 08:27:31;;;;;;;6.72;3.92;;;;;;;;;;7362456;19;20128;-77
2022/05/20 08:29:58;;;;;;;8.18;3.70;;;;;;;;;;7368994;19;20606;-77
2022/05/20 08:32:24;;;;;;;3.80;3.40;;;;;;;;;;7363265;19;20144;-77
2022/05/20 08:34:50;;;;;;;4.07;3.60;;;;;;;;;;7373644;19;20151;-76
2022/05/20 08:37:17;;;;;;;4.53;3.28;;;;;;;;;;7366874;19;20117;-76
2022/05/20 08:39:43;;;;;;;5.60;4.00;;;;;;;;;;7373448;19;20152;-76
2022/05/20 08:42:18;;;;;;;5.10;3.97;;;;;;;;;;7369665;19;20632;-76
2022/05/20 08:44:44;;;;;;;4.88;3.70;;;;;;;;;;7375592;19;20144;-77
2022/05/20 08:47:25;;;;;;;4.60;4.07;;;;;;;;;;7380299;19;20152;-76
2022/05/20 08:49:53;;;;;;;7.03;3.58;;;;;;;;;;7375845;19;20181;-76
2022/05/20 08:52:19;;;;;;;4.50;3.70;;;;;;;;;;7376031;19;20631;-77
2022/05/20 08:54:46;;;;;;;4.72;4.03;;;;;;;;;;7378158;19;20256;-77
2022/05/20 08:57:16;;;;;;;5.90;3.38;;;;;;;;;;7370664;19;20478;-76
2022/05/20 08:59:42;;;;;;;4.55;4.07;;;;;;;;;;7372633;19;20136;-76
2022/05/20 09:02:08;;;;;;;7.13;4.63;;;;;;;;;;7374283;19;20533;-77
2022/05/20 09:04:34;;;;;;;5.90;4.00;;;;;;;;;;7371072;19;20193;-76
2022/05/20 09:07:02;;;;;;;4.43;3.90;;;;;;;;;;7378064;19;20200;-77
2022/05/20 09:09:39;;;;;;;5.97;4.25;;;;;;;;;;7367636;19;20191;-76
2022/05/20 09:12:06;;;;;;;5.20;3.90;;;;;;;;;;7367809;19;20159;-76
2022/05/20 09:17:21;;;;;;;4.28;3.65;;;;;;;;;;7354374;19;21003;-77
2022/05/20 09:20:01;;;;;;;5.63;3.90;;;;;;;;;;7356894;19;20148;-77
2022/05/20 09:22:29;;;;;;;5.85;4.60;;;;;;;;;;7370134;19;20129;-76
2022/05/20 09:24:55;;;;;;;8.32;4.68;;;;;;;;;;7367465;19;20473;-77
2022/05/20 09:27:29;;;;;;;5.95;4.45;;;;;;;;;;7354732;19;20121;-77
2022/05/20 09:29:57;;;;;;;5.00;4.18;;;;;;;;;;7352270;19;20133;-78
2022/05/20 09:32:25;;;;;;;6.97;4.20;;;;;;;;;;7364181;19;20144;-79
2022/05/20 09:35:00;;;;;;;7.28;4.43;;;;;;;;;;7371400;19;20183;-78
2022/05/20 09:37:28;;;;;;;4.57;4.18;;;;;;;;;;7369196;19;20160;-79
2022/05/20 09:39:54;;;;;;;4.65;4.18;;;;;;;;;;7366196;19;20117;-76
2022/05/20 09:42:30;;;;;;;8.65;4.50;;;;;;;;;;7357884;19;20149;-77
2022/05/20 09:44:57;;;;;;;4.85;4.28;;;;;;;;;;7373941;19;20152;-76
2022/05/20 09:47:23;;;;;;;6.50;4.20;;;;;;;;;;7373527;19;20124;-77
2022/05/20 09:49:52;;;;;;;5.82;4.47;;;;;;;;;;7374348;19;20483;-76
2022/05/20 09:52:39;;;;;;;7.03;4.35;;;;;;;;;;7372971;19;20141;-77
2022/05/20 09:55:14;;;;;;;7.63;4.68;;;;;;;;;;7368481;19;20147;-76
2022/05/20 09:57:41;;;;;;;6.00;4.35;;;;;;;;;;7379795;19;20124;-76
2022/05/20 10:00:07;;;;;;;6.70;3.95;;;;;;;;;;7372880;19;20621;-76
2022/05/20 10:02:43;;;;;;;6.88;4.28;;;;;;;;;;7372370;19;20250;-77
2022/05/20 18:19:36;;;;;;;6.15;3.20;;;;;;;;;;7383949;19;20453;-81
2022/05/20 18:22:03;;;;;;;5.75;3.90;;;;;;;;;;7416270;19;20133;-80
2022/05/20 18:24:45;;;;;;;10.57;4.03;;;;;;;;;;7411590;19;20206;-80
2022/05/20 18:27:12;;;;;;;23.10;12.93;;;;;;;;;;7407331;19;20159;-81
2022/05/20 18:29:39;;;;;;;13.35;6.47;;;;;;;;;;7415098;19;20121;-80
2022/05/20 18:32:06;;;;;;;8.27;3.92;;;;;;;;;;7418006;19;20144;-80
2022/05/20 18:40:03;;;;;;;10.70;3.55;;;;;;;;;;7395295;19;20160;-80
2022/05/20 18:42:29;;;;;;;8.32;3.63;;;;;;;;;;7388635;19;22152;-81
2022/05/20 18:44:56;;;;;;;7.60;3.60;;;;;;;;;;7396836;19;20149;-81
2022/05/20 18:47:23;;;;;;;10.15;3.42;;;;;;;;;;7391784;19;20469;-81
2022/05/20 18:49:53;;;;;;;7.88;3.58;;;;;;;;;;7382804;19;20160;-80
2022/05/20 18:52:20;;;;;;;6.55;2.85;;;;;;;;;;7389675;19;20156;-80
2022/05/20 18:54:46;;;;;;;7.43;3.95;;;;;;;;;;7391505;19;20176;-81
2022/05/20 18:57:23;;;;;;;8.43;3.30;;;;;;;;;;7402014;19;20155;-80
2022/05/20 18:59:48;;;;;;;5.40;2.85;;;;;;;;;;7398934;19;20136;-81
2022/05/20 19:02:16;;;;;;;5.88;3.08;;;;;;;;;;7403311;19;20150;-81
2022/05/20 19:04:42;;;;;;;7.88;3.17;;;;;;;;;;7402649;19;20197;-81
2022/05/20 19:07:08;;;;;;;6.57;3.10;;;;;;;;;;7413509;19;20175;-81
2022/05/20 19:09:35;;;;;;;7.68;3.30;;;;;;;;;;7412546;19;20509;-80
2022/05/20 19:12:01;;;;;;;6.00;3.13;;;;;;;;;;7413506;19;20140;-81
2022/05/20 19:14:28;;;;;;;12.35;2.90;;;;;;;;;;7414584;19;20144;-81
2022/05/20 19:16:54;;;;;;;9.10;2.90;;;;;;;;;;7409315;19;20165;-81
2022/05/20 19:19:20;;;;;;;6.18;3.05;;;;;;;;;;7398270;19;20148;-80
2022/05/20 19:21:47;;;;;;;22.23;3.47;;;;;;;;;;7384758;19;20674;-81
2022/05/20 19:24:13;;;;;;;8.70;3.10;;;;;;;;;;7394976;19;20724;-80
2022/05/20 19:26:39;;;;;;;5.20;2.95;;;;;;;;;;7407551;19;20156;-81
2022/05/20 19:29:06;;;;;;;10.20;3.35;;;;;;;;;;7410109;19;20144;-81
2022/05/20 19:31:32;;;;;;;6.70;3.13;;;;;;;;;;7413019;19;20173;-81
2022/05/20 19:33:58;;;;;;;7.07;3.45;;;;;;;;;;7414940;19;20121;-81
2022/05/20 19:36:26;;;;;;;5.75;3.20;;;;;;;;;;7390536;19;20172;-81
2022/05/20 19:38:53;;;;;;;5.68;3.67;;;;;;;;;;7387593;19;20171;-81
2022/05/20 19:41:19;;;;;;;6.47;3.58;;;;;;;;;;7387833;19;20655;-80
2022/05/20 19:43:46;;;;;;;10.90;3.05;;;;;;;;;;7389666;19;20137;-81
2022/05/20 19:46:12;;;;;;;15.13;10.68;;;;;;;;;;7394506;19;20426;-80
2022/05/20 19:48:38;;;;;;;7.28;2.95;;;;;;;;;;7384429;19;20122;-80
2022/05/20 19:51:05;;;;;;;5.55;2.83;;;;;;;;;;7380938;19;20148;-80
2022/05/20 19:53:31;;;;;;;6.90;3.05;;;;;;;;;;7381608;19;20621;-80
2022/05/20 19:55:58;;;;;;;9.52;3.38;;;;;;;;;;7381648;19;20500;-80
2022/05/20 20:01:09;;;;;;;5.63;3.22;;;;;;;;;;7381663;19;20169;-80
2022/05/20 20:03:36;;;;;;;6.10;2.80;;;;;;;;;;7385517;19;20149;-80
2022/05/20 20:06:07;;;;;;;7.30;3.08;;;;;;;;;;7371345;19;20163;-80
2022/05/20 20:08:33;;;;;;;9.10;3.65;;;;;;;;;;7378137;19;20171;-81
2022/05/20 20:10:59;;;;;;;10.52;3.38;;;;;;;;;;7375192;19;20514;-81
2022/05/20 20:13:29;;;;;;;6.28;3.50;;;;;;;;;;7386043;19;20240;-80
2022/05/20 20:15:56;;;;;;;9.90;3.60;;;;;;;;;;7387208;19;20176;-80
2022/05/20 20:18:22;;;;;;;12.05;3.08;;;;;;;;;;7387250;19;20494;-81
2022/05/20 20:20:49;;;;;;;6.45;3.20;;;;;;;;;;7385598;19;20149;-81
2022/05/20 20:26:03;;;;;;;6.55;3.63;;;;;;;;;;7386122;19;20159;-81
2022/05/20 20:28:33;;;;;;;12.98;3.13;;;;;;;;;;7379874;19;20208;-81
2022/05/20 20:31:00;;;;;;;6.43;2.88;;;;;;;;;;7375771;19;20535;-80
2022/05/20 20:33:26;;;;;;;4.65;2.53;;;;;;;;;;7381952;19;20378;-81
2022/05/20 20:35:51;;;;;;;6.88;2.80;;;;;;;;;;7380392;19;20236;-80
2022/05/20 20:38:18;;;;;;;9.68;3.28;;;;;;;;;;7378865;19;20153;-81
2022/05/20 20:40:44;;;;;;;5.55;2.90;;;;;;;;;;7379601;19;20174;-80
2022/05/20 20:43:11;;;;;;;7.28;2.85;;;;;;;;;;7373971;19;20129;-80
2022/05/20 20:45:37;;;;;;;7.07;2.92;;;;;;;;;;7384397;19;20580;-81
2022/05/20 20:48:03;;;;;;;6.40;3.00;;;;;;;;;;7385051;19;20160;-80
2022/05/20 20:50:32;;;;;;;5.05;2.70;;;;;;;;;;7379106;19;20511;-80
2022/05/20 20:52:58;;;;;;;4.93;3.03;;;;;;;;;;7379612;19;20800;-80
2022/05/20 20:55:27;;;;;;;5.72;2.97;;;;;;;;;;7380908;19;20493;-80
2022/05/20 20:57:54;;;;;;;7.47;2.53;;;;;;;;;;7379573;19;20132;-80
2022/05/20 21:00:20;;;;;;;6.55;2.83;;;;;;;;;;7370848;19;20878;-81
2022/05/20 21:02:47;;;;;;;15.25;9.73;;;;;;;;;;7370130;19;20927;-81
2022/05/20 21:05:13;;;;;;;6.07;2.78;;;;;;;;;;7377622;19;20831;-81
2022/05/20 21:07:39;;;;;;;7.57;2.70;;;;;;;;;;7365950;19;20144;-80
2022/05/20 21:10:06;;;;;;;11.25;2.78;;;;;;;;;;7378625;19;20188;-80
2022/05/20 21:12:32;;;;;;;6.35;2.75;;;;;;;;;;7376237;19;20526;-80
2022/05/20 21:15:01;;;;;;;5.32;2.97;;;;;;;;;;7380890;19;20634;-80
2022/05/20 21:17:28;;;;;;;7.20;3.05;;;;;;;;;;7378047;19;20160;-79
2022/05/20 21:19:54;;;;;;;6.70;3.08;;;;;;;;;;7380777;19;20135;-80
2022/05/20 21:22:25;;;;;;;8.77;3.00;;;;;;;;;;7379121;19;20164;-80
2022/05/20 21:24:52;;;;;;;6.22;2.72;;;;;;;;;;7375010;19;20192;-80
2022/05/20 21:27:18;;;;;;;11.10;3.42;;;;;;;;;;7363369;19;20515;-80
2022/05/20 21:29:45;;;;;;;5.63;3.00;;;;;;;;;;7367874;19;20145;-80
2022/05/20 21:32:11;;;;;;;4.82;3.03;;;;;;;;;;7368704;19;20627;-80
2022/05/20 21:34:37;;;;;;;8.13;4.10;;;;;;;;;;7378354;19;20141;-80
2022/05/20 21:37:03;;;;;;;7.53;3.13;;;;;;;;;;7362905;19;20164;-80
2022/05/20 21:39:29;;;;;;;7.80;3.30;;;;;;;;;;7370840;19;20172;-80
2022/05/20 21:41:56;;;;;;;7.40;3.10;;;;;;;;;;7387630;19;20149;-80
2022/05/20 21:44:22;;;;;;;5.72;3.13;;;;;;;;;;7376130;19;20141;-81
2022/05/20 21:46:48;;;;;;;5.43;2.60;;;;;;;;;;7379607;19;20133;-80
2022/05/20 21:49:19;;;;;;;6.10;2.67;;;;;;;;;;7405277;19;20125;-80
2022/05/20 21:51:46;;;;;;;11.20;3.10;;;;;;;;;;7385916;19;20129;-80
2022/05/20 21:54:15;;;;;;;10.52;3.28;;;;;;;;;;7381697;19;20152;-80
2022/05/20 21:56:42;;;;;;;7.43;3.20;;;;;;;;;;7381813;19;20439;-82
2022/05/20 21:59:09;;;;;;;7.15;2.50;;;;;;;;;;7375941;19;20498;-81
2022/05/20 22:09:50;;;;;;;8.32;3.05;;;;;;;;;;7388810;19;20145;-81
2022/05/20 22:12:16;;;;;;;6.90;2.75;;;;;;;;;;7384550;19;20148;-81
2022/05/20 22:14:43;;;;;;;6.00;2.88;;;;;;;;;;7383755;19;20172;-81
2022/05/20 22:17:09;;;;;;;5.32;2.90;;;;;;;;;;7381090;19;20168;-82
2022/05/20 22:19:35;;;;;;;4.90;2.97;;;;;;;;;;7379072;19;20124;-82
2022/05/20 22:22:01;;;;;;;11.23;2.67;;;;;;;;;;7378582;19;20510;-82
2022/05/20 22:24:30;;;;;;;4.32;2.97;;;;;;;;;;7382832;19;20133;-83
2022/05/20 22:26:56;;;;;;;7.18;2.95;;;;;;;;;;7385560;19;20137;-80
2022/05/20 22:29:22;;;;;;;5.63;2.33;;;;;;;;;;7379780;19;20121;-80
2022/05/20 22:31:49;;;;;;;11.90;3.67;;;;;;;;;;7373598;19;20174;-80
2022/05/20 22:34:17;;;;;;;5.43;2.85;;;;;;;;;;7395427;19;20193;-82
2022/05/20 22:36:43;;;;;;;6.00;3.20;;;;;;;;;;7419506;19;20161;-82
2022/05/20 22:39:09;;;;;;;4.38;3.40;;;;;;;;;;7419014;19;20137;-81
2022/05/20 22:41:35;;;;;;;7.97;3.15;;;;;;;;;;7421754;19;20150;-81
2022/05/20 22:44:01;;;;;;;6.18;3.22;;;;;;;;;;7409470;19;20136;-81
2022/05/20 22:46:27;;;;;;;8.48;2.75;;;;;;;;;;7386548;19;20205;-82
2022/05/20 22:48:54;;;;;;;9.70;3.22;;;;;;;;;;7386819;19;20140;-82
2022/05/20 22:51:20;;;;;;;5.90;2.97;;;;;;;;;;7388601;19;20216;-80
2022/05/20 22:53:46;;;;;;;6.00;3.08;;;;;;;;;;7380674;19;20144;-80
2022/05/20 22:56:16;;;;;;;8.02;3.40;;;;;;;;;;7374081;19;20676;-80
2022/05/20 22:58:43;;;;;;;6.07;2.92;;;;;;;;;;7378984;19;20190;-82
2022/05/20 23:01:14;;;;;;;5.00;3.20;;;;;;;;;;7381715;19;20162;-80
2022/05/20 23:03:41;;;;;;;8.07;3.42;;;;;;;;;;7377298;19;20149;-80
2022/05/20 23:06:07;;;;;;;8.40;3.40;;;;;;;;;;7374566;19;20183;-81
2022/05/20 23:08:34;;;;;;;9.23;3.53;;;;;;;;;;7380802;19;20193;-80
2022/05/20 23:11:01;;;;;;;7.88;3.30;;;;;;;;;;7381601;19;20133;-80
2022/05/20 23:13:27;;;;;;;7.75;3.53;;;;;;;;;;7376558;19;20632;-82
2022/05/20 23:15:53;;;;;;;4.90;3.40;;;;;;;;;;7376781;19;20220;-81
2022/05/20 23:18:20;;;;;;;7.47;3.95;;;;;;;;;;7379472;19;20219;-80
2022/05/20 23:20:46;;;;;;;8.95;4.55;;;;;;;;;;7382949;19;20132;-80
2022/05/20 23:23:13;;;;;;;12.48;4.57;;;;;;;;;;7378617;19;20137;-82
2022/05/20 23:25:39;;;;;;;6.68;4.57;;;;;;;;;;7372344;19;20206;-80
2022/05/20 23:28:06;;;;;;;8.52;4.78;;;;;;;;;;7387152;19;20141;-80
2022/05/20 23:30:32;;;;;;;8.07;4.70;;;;;;;;;;7381052;19;20927;-80
2022/05/20 23:32:59;;;;;;;10.23;4.82;;;;;;;;;;7376243;19;21240;-79
2022/05/20 23:35:25;;;;;;;9.02;4.78;;;;;;;;;;7380519;19;20636;-80
2022/05/20 23:37:52;;;;;;;8.95;5.32;;;;;;;;;;7370704;19;20145;-80
2022/05/20 23:40:18;;;;;;;12.02;4.90;;;;;;;;;;7389185;19;20133;-80
2022/05/20 23:42:45;;;;;;;12.85;5.45;;;;;;;;;;7381214;19;20125;-81
2022/05/20 23:45:11;;;;;;;10.38;6.05;;;;;;;;;;7384885;19;20173;-81
2022/05/20 23:47:38;;;;;;;9.55;5.60;;;;;;;;;;7384680;19;20133;-81
2022/05/20 23:50:04;;;;;;;8.75;5.95;;;;;;;;;;7381010;19;20129;-81